createdAt,value
2023-03-11T00:01:31.985Z,-0.12
2023-03-11T00:04:00.120Z,-0.13
2023-03-11T00:06:26.607Z,-0.08
2023-03-11T00:08:53.052Z,-0.03
2023-03-11T00:11:19.752Z,0.00
2023-03-11T00:13:46.144Z,0.04
2023-03-11T00:16:12.528Z,0.06
2023-03-11T00:18:38.946Z,0.07
2023-03-11T00:21:05.445Z,0.08
2023-03-11T00:23:32.623Z,0.11
2023-03-11T00:26:01.089Z,0.15
2023-03-11T00:28:27.592Z,0.16
2023-03-11T00:30:54.402Z,0.16
2023-03-11T00:33:20.810Z,0.13
2023-03-11T00:35:47.208Z,0.10
2023-03-11T00:38:16.478Z,0.08
2023-03-11T00:40:44.125Z,0.07
2023-03-11T00:43:10.579Z,0.06
2023-03-11T00:45:36.979Z,0.06
2023-03-11T00:48:03.967Z,0.07
2023-03-11T00:50:33.671Z,0.07
2023-03-11T00:53:00.509Z,0.08
2023-03-11T00:55:31.954Z,0.06
2023-03-11T00:58:02.302Z,0.06
2023-03-11T01:00:29.652Z,0.08
2023-03-11T01:02:56.651Z,0.10
2023-03-11T01:05:28.395Z,0.15
2023-03-11T01:07:54.875Z,0.16
2023-03-11T01:10:21.293Z,0.19
2023-03-11T01:12:48.010Z,0.22
2023-03-11T01:15:27.797Z,0.23
2023-03-11T01:17:54.230Z,0.22
2023-03-11T01:20:20.816Z,0.18
2023-03-11T01:22:47.832Z,0.18
2023-03-11T01:25:17.064Z,0.19
2023-03-11T01:27:44.255Z,0.23
2023-03-11T01:30:15.178Z,0.24
2023-03-11T01:32:41.747Z,0.27
2023-03-11T01:35:10.075Z,0.29
2023-03-11T01:37:36.403Z,0.31
2023-03-11T01:40:03.140Z,0.33
2023-03-11T01:42:29.542Z,0.35
2023-03-11T01:44:55.927Z,0.36
2023-03-11T01:47:51.788Z,0.37
2023-03-11T01:50:18.358Z,0.37
2023-03-11T01:52:45.055Z,0.35
2023-03-11T01:55:13.394Z,0.33
2023-03-11T01:57:42.592Z,0.33
2023-03-11T02:00:11.639Z,0.35
2023-03-11T02:02:59.773Z,0.35
2023-03-11T02:05:26.370Z,0.34
2023-03-11T02:07:54.759Z,0.35
2023-03-11T02:10:22.074Z,0.36
2023-03-11T02:12:50.647Z,0.35
2023-03-11T02:15:17.535Z,0.35
2023-03-11T02:17:44.185Z,0.36
2023-03-11T02:20:29.953Z,0.35
2023-03-11T02:22:57.278Z,0.35
2023-03-11T02:25:49.936Z,0.35
2023-03-11T02:28:18.969Z,0.35
2023-03-11T02:30:46.435Z,0.36
2023-03-11T02:33:14.496Z,0.36
2023-03-11T02:35:41.253Z,0.35
2023-03-11T02:38:07.616Z,0.35
2023-03-11T02:40:40.535Z,0.36
2023-03-11T02:43:14.421Z,0.34
2023-03-11T02:45:43.491Z,0.31
2023-03-11T02:48:11.685Z,0.26
2023-03-11T02:50:39.518Z,0.22
2023-03-11T02:53:06.665Z,0.18
2023-03-11T02:55:33.489Z,0.14
2023-03-11T02:57:59.934Z,0.08
2023-03-11T03:00:26.361Z,0.02
2023-03-11T03:02:53.385Z,-0.04
2023-03-11T03:05:21.040Z,-0.11
2023-03-11T03:07:48.566Z,-0.19
2023-03-11T03:10:15.953Z,-0.25
2023-03-11T03:12:42.754Z,-0.31
2023-03-11T03:15:11.014Z,-0.38
2023-03-11T03:17:38.465Z,-0.43
2023-03-11T03:20:09.056Z,-0.49
2023-03-11T03:22:35.464Z,-0.54
2023-03-11T03:25:01.781Z,-0.59
2023-03-11T03:27:28.129Z,-0.60
2023-03-11T03:29:54.517Z,-0.62
2023-03-11T03:32:20.911Z,-0.67
2023-03-11T03:34:47.369Z,-0.70
2023-03-11T03:37:13.774Z,-0.73
2023-03-11T03:39:40.152Z,-0.78
2023-03-11T03:42:06.919Z,-0.78
2023-03-11T03:44:33.769Z,-0.78
2023-03-11T03:47:00.175Z,-0.78
2023-03-11T03:49:26.955Z,-0.77
2023-03-11T03:51:53.311Z,-0.76
2023-03-11T03:54:19.703Z,-0.72
2023-03-11T03:56:46.065Z,-0.69
2023-03-11T03:59:13.051Z,-0.69
2023-03-11T04:01:39.405Z,-0.66
2023-03-11T04:04:05.751Z,-0.64
2023-03-11T04:06:32.179Z,-0.62
2023-03-11T04:08:58.529Z,-0.59
2023-03-11T04:11:24.967Z,-0.55
2023-03-11T04:13:51.511Z,-0.54
2023-03-11T04:16:20.701Z,-0.53
2023-03-11T04:18:48.039Z,-0.56
2023-03-11T04:21:17.507Z,-0.60
2023-03-11T04:23:43.928Z,-0.64
2023-03-11T04:26:10.434Z,-0.71
2023-03-11T04:28:36.913Z,-0.76
2023-03-11T04:31:03.593Z,-0.82
2023-03-11T04:33:30.136Z,-0.89
2023-03-11T04:35:56.587Z,-0.93
2023-03-11T04:38:23.049Z,-0.96
2023-03-11T04:40:49.459Z,-1.00
2023-03-11T04:43:16.686Z,-1.02
2023-03-11T04:45:43.036Z,-1.06
2023-03-11T04:48:09.433Z,-1.12
2023-03-11T04:50:35.874Z,-1.15
2023-03-11T04:53:02.241Z,-1.18
2023-03-11T04:55:28.626Z,-1.23
2023-03-11T04:57:56.092Z,-1.25
2023-03-11T05:00:24.849Z,-1.29
2023-03-11T05:02:51.445Z,-1.31
2023-03-11T05:05:19.372Z,-1.35
2023-03-11T05:07:45.790Z,-1.37
2023-03-11T05:10:12.954Z,-1.38
2023-03-11T05:12:39.397Z,-1.41
2023-03-11T05:15:06.434Z,-1.45
2023-03-11T05:17:32.960Z,-1.48
2023-03-11T05:19:59.310Z,-1.51
2023-03-11T05:22:25.784Z,-1.52
2023-03-11T05:24:52.116Z,-1.56
2023-03-11T05:27:18.558Z,-1.59
2023-03-11T05:29:45.257Z,-1.61
2023-03-11T05:32:12.856Z,-1.64
2023-03-11T05:34:39.401Z,-1.65
2023-03-11T05:37:05.934Z,-1.65
2023-03-11T05:39:32.274Z,-1.67
2023-03-11T05:41:58.634Z,-1.70
2023-03-11T05:44:25.042Z,-1.71
2023-03-11T05:46:51.405Z,-1.72
2023-03-11T05:49:17.800Z,-1.73
2023-03-11T05:51:44.159Z,-1.74
2023-03-11T05:54:14.964Z,-1.73
2023-03-11T05:56:42.585Z,-1.74
2023-03-11T05:59:09.571Z,-1.76
2023-03-11T06:01:36.373Z,-1.76
2023-03-11T06:04:03.334Z,-1.80
2023-03-11T06:06:30.279Z,-1.84
2023-03-11T06:08:56.725Z,-1.90
2023-03-11T06:11:25.553Z,-1.97
2023-03-11T06:13:57.176Z,-1.97
2023-03-11T06:16:25.018Z,-2.01
2023-03-11T06:18:52.229Z,-2.05
2023-03-11T06:21:21.064Z,-2.00
2023-03-11T06:23:47.760Z,-1.93
2023-03-11T06:26:16.876Z,-1.91
2023-03-11T06:28:44.931Z,-1.86
2023-03-11T06:31:17.672Z,-1.79
2023-03-11T06:33:46.437Z,-1.55
2023-03-11T06:36:15.251Z,-1.40
2023-03-11T06:38:43.052Z,-1.38
2023-03-11T06:41:10.296Z,-1.30
2023-03-11T06:43:37.009Z,-1.22
2023-03-11T06:46:10.116Z,-1.17
2023-03-11T06:48:36.654Z,-1.12
2023-03-11T06:51:03.166Z,-1.04
2023-03-11T06:53:29.980Z,-0.84
2023-03-11T06:56:04.561Z,-0.66
2023-03-11T06:58:32.226Z,-0.51
2023-03-11T07:01:04.769Z,-0.18
2023-03-11T07:03:31.736Z,-0.03
2023-03-11T07:05:58.746Z,-0.11
2023-03-11T07:08:25.746Z,-0.24
2023-03-11T07:11:01.391Z,-0.30
2023-03-11T07:13:28.802Z,-0.33
2023-03-11T07:16:18.506Z,-0.26
2023-03-11T07:18:46.784Z,-0.19
2023-03-11T07:21:16.548Z,-0.17
2023-03-11T07:23:43.023Z,-0.11
2023-03-11T07:26:10.914Z,0.23
2023-03-11T07:28:38.061Z,0.43
2023-03-11T07:31:10.000Z,0.51
2023-03-11T07:33:39.361Z,1.03
2023-03-11T07:36:17.052Z,2.35
2023-03-11T07:38:44.880Z,2.94
2023-03-11T07:41:12.277Z,2.91
2023-03-11T07:43:40.420Z,4.07
2023-03-11T07:46:08.510Z,4.72
2023-03-11T07:48:36.953Z,4.34
2023-03-11T07:51:27.599Z,3.53
2023-03-11T07:53:56.196Z,3.71
2023-03-11T07:56:24.547Z,4.49
2023-03-11T07:58:51.558Z,5.65
2023-03-11T08:01:23.154Z,6.58
2023-03-11T08:03:52.922Z,6.68
2023-03-11T08:06:21.710Z,6.74
2023-03-11T08:08:49.661Z,6.99
2023-03-11T08:11:16.515Z,6.93
2023-03-11T08:13:47.779Z,7.04
2023-03-11T08:16:17.005Z,7.51
2023-03-11T08:18:44.573Z,8.09
2023-03-11T08:21:19.257Z,8.59
2023-03-11T08:23:48.647Z,8.88
2023-03-11T08:26:17.576Z,9.53
2023-03-11T08:28:46.887Z,10.19
2023-03-11T08:31:16.030Z,10.66
2023-03-11T08:33:43.928Z,11.35
2023-03-11T08:36:11.045Z,11.41
2023-03-11T08:38:37.714Z,11.21
2023-03-11T08:41:05.105Z,11.51
2023-03-11T08:43:31.526Z,11.20
2023-03-11T08:46:00.787Z,10.80
2023-03-11T08:48:27.780Z,11.15
2023-03-11T08:50:54.872Z,11.13
2023-03-11T08:53:22.471Z,11.15
2023-03-11T08:55:49.912Z,11.57
2023-03-11T08:58:16.389Z,11.69
2023-03-11T09:00:42.868Z,11.40
2023-03-11T09:03:10.157Z,12.01
2023-03-11T09:05:36.929Z,12.62
2023-03-11T09:08:05.553Z,13.31
2023-03-11T09:10:32.334Z,13.66
2023-03-11T09:12:58.726Z,13.26
2023-03-11T09:15:25.325Z,13.19
2023-03-11T09:17:51.733Z,12.39
2023-03-11T09:20:18.394Z,12.03
2023-03-11T09:22:44.947Z,12.00
2023-03-11T09:25:13.222Z,11.69
2023-03-11T09:27:41.209Z,11.48
2023-03-11T09:30:08.960Z,11.45
2023-03-11T09:32:35.430Z,11.38
2023-03-11T09:35:01.890Z,11.68
2023-03-11T09:37:30.184Z,11.54
2023-03-11T09:39:56.573Z,11.47
2023-03-11T09:42:37.480Z,11.38
2023-03-11T09:45:13.782Z,11.21
2023-03-11T09:47:46.370Z,12.34
2023-03-11T09:50:32.681Z,12.96
2023-03-11T09:52:59.019Z,12.94
2023-03-11T09:56:01.709Z,13.69
2023-03-11T09:58:52.526Z,14.57
2023-03-11T10:01:35.149Z,15.70
2023-03-11T10:04:20.203Z,16.50
2023-03-11T10:06:48.029Z,16.23
2023-03-11T10:09:33.874Z,15.20
2023-03-11T10:12:29.702Z,14.31
2023-03-11T10:15:14.064Z,13.82
2023-03-11T10:18:14.966Z,12.59
2023-03-11T10:20:53.521Z,12.44
2023-03-11T10:23:28.786Z,12.40
2023-03-11T10:26:20.209Z,13.55
2023-03-11T10:29:00.121Z,14.55
2023-03-11T10:31:36.198Z,14.41
2023-03-11T10:34:28.160Z,14.96
2023-03-11T10:37:04.029Z,14.80
2023-03-11T10:39:33.138Z,14.62
2023-03-11T10:42:05.108Z,15.08
2023-03-11T10:44:37.829Z,14.79
2023-03-11T10:47:05.524Z,14.41
2023-03-11T10:49:32.367Z,14.72
2023-03-11T10:51:58.811Z,14.85
2023-03-11T10:54:32.634Z,14.79
2023-03-11T10:57:02.201Z,15.05
2023-03-11T10:59:47.524Z,15.34
2023-03-11T11:02:27.979Z,14.94
2023-03-11T11:05:06.256Z,14.53
2023-03-11T11:07:36.300Z,12.84
2023-03-11T11:10:11.890Z,12.35
2023-03-11T11:12:59.079Z,13.75
2023-03-11T11:15:30.431Z,14.86
2023-03-11T11:18:02.196Z,15.83
2023-03-11T11:20:30.268Z,16.03
2023-03-11T11:23:02.154Z,17.21
2023-03-11T11:25:28.531Z,17.70
2023-03-11T11:27:57.752Z,17.76
2023-03-11T11:30:25.078Z,17.49
2023-03-11T11:32:53.815Z,17.64
2023-03-11T11:35:22.832Z,18.29
2023-03-11T11:37:55.520Z,18.21
2023-03-11T11:40:26.381Z,17.53
2023-03-11T11:43:01.249Z,16.72
2023-03-11T11:45:37.746Z,16.86
2023-03-11T11:48:21.305Z,16.86
2023-03-11T11:51:00.562Z,16.41
2023-03-11T11:53:41.041Z,16.95
2023-03-11T11:56:07.537Z,17.47
2023-03-11T11:58:34.743Z,16.99
2023-03-11T12:01:30.567Z,16.34
2023-03-11T12:04:25.880Z,17.45
2023-03-11T12:07:09.442Z,16.06
2023-03-11T12:10:09.744Z,16.23
2023-03-11T12:12:55.330Z,16.54
2023-03-11T12:15:30.486Z,16.38
2023-03-11T12:18:03.114Z,17.22
2023-03-11T12:20:32.734Z,17.63
2023-03-11T12:23:17.030Z,17.32
2023-03-11T12:25:49.075Z,17.10
2023-03-11T12:28:26.000Z,17.52
2023-03-11T12:30:58.815Z,18.09
2023-03-11T12:33:33.327Z,18.30
2023-03-11T12:36:00.609Z,18.86
2023-03-11T12:38:32.958Z,18.95
2023-03-11T12:41:31.213Z,18.29
2023-03-11T12:44:05.645Z,18.20
2023-03-11T12:46:53.845Z,17.50
2023-03-11T12:49:46.895Z,17.08
2023-03-11T12:52:13.256Z,17.48
2023-03-11T12:54:41.864Z,17.42
2023-03-11T12:57:17.283Z,16.68
2023-03-11T13:00:17.449Z,14.37
2023-03-11T13:03:01.548Z,13.02
2023-03-11T13:05:46.423Z,12.73
2023-03-11T13:08:19.534Z,15.18
2023-03-11T13:10:48.292Z,16.53
2023-03-11T13:13:32.416Z,17.80
2023-03-11T13:16:18.820Z,17.80
2023-03-11T13:18:47.640Z,17.79
2023-03-11T13:21:32.261Z,17.92
2023-03-11T13:24:26.018Z,18.13
2023-03-11T13:26:58.469Z,18.10
2023-03-11T13:29:51.946Z,18.12
2023-03-11T13:33:07.142Z,18.47
2023-03-11T13:35:52.218Z,17.27
2023-03-11T13:38:45.812Z,17.29
2023-03-11T13:41:22.290Z,17.42
2023-03-11T13:43:51.198Z,17.46
2023-03-11T13:46:40.953Z,17.27
2023-03-11T13:49:22.919Z,16.51
2023-03-11T13:51:50.177Z,16.83
2023-03-11T13:54:23.198Z,18.35
2023-03-11T13:56:58.082Z,18.20
2023-03-11T13:59:27.324Z,18.73
2023-03-11T14:01:58.510Z,18.62
2023-03-11T14:04:37.357Z,18.86
2023-03-11T14:07:27.606Z,18.13
2023-03-11T14:10:11.976Z,18.46
2023-03-11T14:12:38.966Z,18.18
2023-03-11T14:15:08.027Z,17.19
2023-03-11T14:17:34.721Z,17.04
2023-03-11T14:20:17.176Z,16.66
2023-03-11T14:22:53.083Z,15.32
2023-03-11T14:25:26.180Z,14.56
2023-03-11T14:27:56.738Z,14.73
2023-03-11T14:30:32.015Z,14.80
2023-03-11T14:33:06.279Z,15.14
2023-03-11T14:35:33.784Z,14.98
2023-03-11T14:38:01.064Z,14.33
2023-03-11T14:40:33.776Z,13.92
2023-03-11T14:43:03.588Z,14.00
2023-03-11T14:45:33.251Z,14.06
2023-03-11T14:48:03.031Z,14.22
2023-03-11T14:50:32.648Z,14.47
2023-03-11T14:53:14.230Z,14.38
2023-03-11T14:55:58.958Z,16.08
2023-03-11T14:58:34.463Z,17.22
2023-03-11T15:01:17.236Z,17.49
2023-03-11T15:03:55.174Z,17.00
2023-03-11T15:06:27.823Z,17.12
2023-03-11T15:09:03.529Z,16.49
2023-03-11T15:11:30.038Z,17.37
2023-03-11T15:14:17.698Z,17.30
2023-03-11T15:16:44.123Z,16.25
2023-03-11T15:19:25.750Z,16.63
2023-03-11T15:21:56.428Z,17.08
2023-03-11T15:24:27.718Z,17.77
2023-03-11T15:27:06.877Z,17.11
2023-03-11T15:29:34.800Z,16.42
2023-03-11T15:32:30.081Z,15.43
2023-03-11T15:35:21.214Z,14.87
2023-03-11T15:37:48.817Z,15.27
2023-03-11T15:40:42.445Z,14.87
2023-03-11T15:43:21.076Z,14.54
2023-03-11T15:45:48.963Z,14.30
2023-03-11T15:48:15.520Z,14.46
2023-03-11T15:50:54.709Z,14.44
2023-03-11T15:53:23.546Z,15.30
2023-03-11T15:55:50.572Z,16.73
2023-03-11T15:58:19.514Z,17.01
2023-03-11T16:00:55.919Z,16.92
2023-03-11T16:03:22.515Z,16.86
2023-03-11T16:05:49.043Z,16.36
2023-03-11T16:08:15.957Z,15.71
2023-03-11T16:10:42.914Z,15.72
2023-03-11T16:13:13.985Z,15.82
2023-03-11T16:15:42.276Z,14.31
2023-03-11T16:18:09.475Z,13.22
2023-03-11T16:20:43.975Z,12.67
2023-03-11T16:23:36.172Z,11.84
2023-03-11T16:26:10.525Z,11.22
2023-03-11T16:28:36.942Z,10.81
2023-03-11T16:31:04.020Z,10.30
2023-03-11T16:33:30.591Z,10.16
2023-03-11T16:35:57.032Z,10.09
2023-03-11T16:38:23.561Z,9.91
2023-03-11T16:40:58.638Z,9.56
2023-03-11T16:43:25.932Z,9.63
2023-03-11T16:45:54.618Z,9.51
2023-03-11T16:48:24.596Z,9.43
2023-03-11T16:50:51.147Z,9.20
2023-03-11T16:53:17.805Z,9.05
2023-03-11T16:55:45.836Z,9.13
2023-03-11T16:58:13.816Z,8.98
2023-03-11T17:00:41.869Z,9.07
2023-03-11T17:03:13.253Z,8.82
2023-03-11T17:05:40.352Z,8.61
2023-03-11T17:08:06.867Z,8.59
2023-03-11T17:10:39.361Z,8.55
2023-03-11T17:13:07.279Z,8.29
2023-03-11T17:15:38.421Z,8.20
2023-03-11T17:18:06.101Z,8.13
2023-03-11T17:20:33.369Z,7.95
2023-03-11T17:23:00.562Z,8.06
2023-03-11T17:25:27.039Z,8.00
2023-03-11T17:27:53.548Z,7.75
2023-03-11T17:30:35.652Z,7.56
2023-03-11T17:33:03.198Z,7.47
2023-03-11T17:35:29.667Z,7.39
2023-03-11T17:37:56.129Z,7.15
2023-03-11T17:40:22.538Z,6.96
2023-03-11T17:42:48.941Z,6.85
2023-03-11T17:45:15.455Z,6.74
2023-03-11T17:47:41.846Z,6.54
2023-03-11T17:50:08.855Z,6.41
2023-03-11T17:52:35.326Z,6.36
2023-03-11T17:55:01.797Z,6.32
2023-03-11T17:57:28.355Z,6.31
2023-03-11T17:59:54.810Z,6.32
2023-03-11T18:02:21.421Z,6.28
2023-03-11T18:04:53.554Z,6.28
2023-03-11T18:07:22.989Z,6.21
2023-03-11T18:09:53.426Z,6.16
2023-03-11T18:12:20.540Z,6.09
2023-03-11T18:14:46.915Z,5.96
2023-03-11T18:17:13.304Z,5.75
2023-03-11T18:19:39.745Z,5.63
2023-03-11T18:22:06.242Z,5.62
2023-03-11T18:24:32.658Z,5.59
2023-03-11T18:26:58.992Z,5.57
2023-03-11T18:29:25.386Z,5.55
2023-03-11T18:31:51.836Z,5.61
2023-03-11T18:34:18.266Z,5.68
2023-03-11T18:36:44.813Z,5.75
2023-03-11T18:39:12.552Z,5.77
2023-03-11T18:41:39.908Z,5.74
2023-03-11T18:44:07.099Z,5.69
2023-03-11T18:46:33.572Z,5.74
2023-03-11T18:49:02.363Z,5.71
2023-03-11T18:51:30.965Z,5.65
2023-03-11T18:53:57.788Z,5.62
2023-03-11T18:56:24.140Z,5.56
2023-03-11T18:58:50.556Z,5.52
2023-03-11T19:01:19.431Z,5.50
2023-03-11T19:03:56.139Z,5.50
2023-03-11T19:06:24.721Z,5.51
2023-03-11T19:08:51.274Z,5.47
2023-03-11T19:11:20.570Z,5.45
2023-03-11T19:13:48.215Z,5.43
2023-03-11T19:16:17.502Z,5.48
2023-03-11T19:18:44.610Z,5.49
2023-03-11T19:21:13.589Z,5.38
2023-03-11T19:23:40.029Z,5.26
2023-03-11T19:26:07.024Z,5.18
2023-03-11T19:28:33.760Z,5.13
2023-03-11T19:31:00.371Z,5.08
2023-03-11T19:33:27.215Z,5.12
2023-03-11T19:35:59.228Z,5.09
2023-03-11T19:38:26.539Z,5.06
2023-03-11T19:41:06.619Z,4.97
2023-03-11T19:43:35.413Z,4.82
2023-03-11T19:46:03.039Z,4.65
2023-03-11T19:48:29.606Z,4.55
2023-03-11T19:50:56.094Z,4.43
2023-03-11T19:53:23.022Z,4.26
2023-03-11T19:55:55.637Z,4.17
2023-03-11T19:58:23.760Z,4.10
2023-03-11T20:00:50.521Z,4.07
2023-03-11T20:03:17.217Z,4.02
2023-03-11T20:05:46.328Z,3.96
2023-03-11T20:08:16.009Z,3.80
2023-03-11T20:10:45.060Z,3.65
2023-03-11T20:13:12.124Z,3.47
2023-03-11T20:15:38.915Z,3.40
2023-03-11T20:18:06.117Z,3.34
2023-03-11T20:20:34.103Z,3.28
2023-03-11T20:23:01.995Z,3.28
2023-03-11T20:25:32.218Z,3.29
2023-03-11T20:28:00.249Z,3.20
2023-03-11T20:30:27.408Z,3.16
2023-03-11T20:32:54.294Z,3.10
2023-03-11T20:35:21.742Z,3.02
2023-03-11T20:37:48.298Z,2.99
2023-03-11T20:40:16.741Z,2.93
2023-03-11T20:42:46.784Z,2.84
2023-03-11T20:45:16.046Z,2.79
2023-03-11T20:47:44.158Z,2.75
2023-03-11T20:50:12.192Z,2.72
2023-03-11T20:52:38.597Z,2.70
2023-03-11T20:55:07.473Z,2.69
2023-03-11T20:57:34.152Z,2.69
2023-03-11T21:00:00.662Z,2.73
2023-03-11T21:02:30.450Z,2.75
2023-03-11T21:04:56.935Z,2.76
2023-03-11T21:07:23.330Z,2.62
2023-03-11T21:09:54.365Z,2.51
2023-03-11T21:12:21.651Z,2.53
2023-03-11T21:14:48.029Z,2.56
2023-03-11T21:17:14.567Z,2.60
2023-03-11T21:19:41.377Z,2.52
2023-03-11T21:22:07.734Z,2.43
2023-03-11T21:24:34.268Z,2.36
2023-03-11T21:27:01.053Z,2.29
2023-03-11T21:29:27.809Z,2.30
2023-03-11T21:31:54.372Z,2.31
2023-03-11T21:34:20.815Z,2.32
2023-03-11T21:36:47.320Z,2.39
2023-03-11T21:39:15.139Z,2.43
2023-03-11T21:41:41.685Z,2.41
2023-03-11T21:44:08.133Z,2.40
2023-03-11T21:46:34.927Z,2.42
2023-03-11T21:49:01.820Z,2.37
2023-03-11T21:51:29.222Z,2.35
2023-03-11T21:53:56.443Z,2.37
2023-03-11T21:56:23.130Z,2.41
2023-03-11T21:58:49.836Z,2.44
2023-03-11T22:01:16.477Z,2.43
2023-03-11T22:03:43.787Z,2.36
2023-03-11T22:06:12.303Z,2.26
2023-03-11T22:08:39.028Z,2.19
2023-03-11T22:11:10.740Z,2.11
2023-03-11T22:13:37.203Z,2.07
2023-03-11T22:16:06.312Z,2.04
2023-03-11T22:18:32.968Z,1.96
2023-03-11T22:20:59.849Z,1.87
2023-03-11T22:23:26.443Z,1.82
2023-03-11T22:25:52.886Z,1.78
2023-03-11T22:28:19.298Z,1.72
2023-03-11T22:30:45.633Z,1.68
2023-03-11T22:33:12.070Z,1.69
2023-03-11T22:35:38.531Z,1.63
2023-03-11T22:38:05.148Z,1.59
2023-03-11T22:40:31.606Z,1.63
2023-03-11T22:42:57.975Z,1.67
2023-03-11T22:45:24.494Z,1.73
2023-03-11T22:47:50.916Z,1.70
2023-03-11T22:50:18.247Z,1.64
2023-03-11T22:52:45.095Z,1.58
2023-03-11T22:55:11.615Z,1.56
2023-03-11T22:57:38.898Z,1.48
2023-03-11T23:00:17.352Z,1.48
2023-03-11T23:02:45.429Z,1.49
2023-03-11T23:05:13.549Z,1.52
2023-03-11T23:07:40.985Z,1.56
2023-03-11T23:10:09.307Z,1.58
2023-03-11T23:12:36.636Z,1.61
2023-03-11T23:15:04.986Z,1.59
2023-03-11T23:17:31.600Z,1.59
2023-03-11T23:19:58.021Z,1.61
2023-03-11T23:22:24.746Z,1.66
2023-03-11T23:24:51.115Z,1.58
2023-03-11T23:27:17.520Z,1.52
2023-03-11T23:29:44.211Z,1.54
2023-03-11T23:32:11.439Z,1.59
2023-03-11T23:34:38.225Z,1.61
2023-03-11T23:37:05.554Z,1.63
2023-03-11T23:39:32.067Z,1.73
2023-03-11T23:41:58.604Z,1.79
2023-03-11T23:44:25.048Z,1.79
2023-03-11T23:46:51.435Z,1.77
2023-03-11T23:49:17.769Z,1.77
2023-03-11T23:51:44.148Z,1.78
2023-03-11T23:54:10.511Z,1.83
2023-03-11T23:56:36.967Z,1.83
2023-03-11T23:59:03.978Z,1.80
